createdAt,value
2018-05-09T00:02:19.922Z,57.10
2018-05-09T00:04:48.483Z,56.80
2018-05-09T00:07:17.805Z,55.50
2018-05-09T00:09:46.392Z,55.50
2018-05-09T00:12:14.950Z,56.10
2018-05-09T00:14:43.490Z,56.00
2018-05-09T00:17:12.053Z,56.20
2018-05-09T00:19:40.615Z,57.00
2018-05-09T00:22:09.176Z,56.10
2018-05-09T00:24:37.727Z,56.30
2018-05-09T00:27:06.289Z,56.80
2018-05-09T00:29:34.896Z,56.50
2018-05-09T00:32:03.446Z,56.20
2018-05-09T00:34:32.002Z,57.10
2018-05-09T00:37:00.551Z,56.40
2018-05-09T00:39:29.105Z,56.10
2018-05-09T00:41:57.671Z,56.40
2018-05-09T00:44:26.225Z,56.40
2018-05-09T00:46:54.801Z,56.50
2018-05-09T00:49:23.378Z,57.00
2018-05-09T00:51:51.922Z,57.20
2018-05-09T00:54:33.222Z,57.30
2018-05-09T00:57:01.854Z,56.80
2018-05-09T00:59:31.182Z,56.90
2018-05-09T01:01:59.732Z,56.90
2018-05-09T01:04:28.293Z,57.20
2018-05-09T01:06:56.911Z,57.20
2018-05-09T01:09:25.442Z,57.50
2018-05-09T01:11:54.010Z,57.50
2018-05-09T01:14:22.586Z,57.70
2018-05-09T01:16:51.130Z,57.80
2018-05-09T01:19:19.659Z,57.70
2018-05-09T01:21:48.192Z,57.70
2018-05-09T01:24:16.731Z,58.70
2018-05-09T01:26:45.314Z,58.10
2018-05-09T01:29:13.856Z,58.70
2018-05-09T01:31:43.187Z,58.60
2018-05-09T01:34:11.736Z,58.60
2018-05-09T01:36:40.275Z,58.50
2018-05-09T01:39:08.855Z,59.50
2018-05-09T01:41:37.483Z,58.80
2018-05-09T01:44:06.022Z,58.70
2018-05-09T01:46:34.553Z,58.80
2018-05-09T01:49:03.099Z,58.30
2018-05-09T01:51:31.667Z,58.10
2018-05-09T01:54:00.213Z,58.20
2018-05-09T01:56:29.525Z,58.80
2018-05-09T01:58:58.078Z,58.70
2018-05-09T02:01:26.625Z,58.70
2018-05-09T02:03:55.170Z,59.10
2018-05-09T02:06:23.723Z,58.80
2018-05-09T02:08:52.260Z,58.30
2018-05-09T02:11:20.801Z,58.40
2018-05-09T02:13:49.338Z,58.20
2018-05-09T02:16:17.891Z,57.60
2018-05-09T02:18:46.457Z,57.80
2018-05-09T02:21:15.791Z,58.00
2018-05-09T02:23:44.346Z,58.00
2018-05-09T02:26:13.686Z,57.40
2018-05-09T02:28:42.213Z,57.50
2018-05-09T02:31:10.853Z,57.20
2018-05-09T02:33:40.125Z,57.10
2018-05-09T02:36:09.447Z,56.50
2018-05-09T02:38:38.006Z,56.40
2018-05-09T02:41:07.330Z,56.90
2018-05-09T02:43:35.942Z,56.90
2018-05-09T02:46:04.462Z,56.90
2018-05-09T02:48:33.804Z,57.50
2018-05-09T02:51:24.591Z,57.20
2018-05-09T02:53:53.091Z,58.10
2018-05-09T02:56:21.635Z,57.10
2018-05-09T02:58:50.147Z,57.40
2018-05-09T03:01:18.672Z,57.30
2018-05-09T03:03:47.170Z,57.10
2018-05-09T03:06:15.676Z,57.40
2018-05-09T03:08:44.185Z,56.60
2018-05-09T03:11:12.690Z,57.90
2018-05-09T03:13:42.006Z,58.50
2018-05-09T03:16:10.560Z,58.50
2018-05-09T03:18:39.904Z,59.60
2018-05-09T03:21:08.481Z,59.60
2018-05-09T03:23:37.059Z,60.40
2018-05-09T03:26:05.614Z,60.10
2018-05-09T03:28:34.936Z,61.10
2018-05-09T03:31:05.920Z,61.10
2018-05-09T03:33:34.473Z,61.60
2018-05-09T03:36:03.063Z,62.00
2018-05-09T03:38:31.713Z,64.70
2018-05-09T03:41:01.037Z,66.70
2018-05-09T03:43:29.578Z,66.70
2018-05-09T03:45:58.106Z,65.80
2018-05-09T03:48:26.658Z,67.50
2018-05-09T03:50:55.984Z,66.40
2018-05-09T03:53:24.636Z,66.30
2018-05-09T03:55:53.159Z,64.20
2018-05-09T03:58:21.740Z,67.20
2018-05-09T04:00:50.286Z,68.60
2018-05-09T04:03:36.809Z,68.40
2018-05-09T04:06:23.197Z,63.60
2018-05-09T04:12:02.541Z,67.70
2018-05-09T04:14:31.046Z,68.00
2018-05-09T04:17:00.319Z,68.50
2018-05-09T04:19:28.857Z,68.40
2018-05-09T04:21:57.398Z,67.70
2018-05-09T04:24:25.942Z,67.10
2018-05-09T04:26:54.506Z,66.60
2018-05-09T04:29:23.042Z,67.20
2018-05-09T04:31:51.579Z,67.60
2018-05-09T04:34:20.888Z,68.10
2018-05-09T04:36:49.455Z,68.10
2018-05-09T04:39:18.002Z,68.30
2018-05-09T04:41:47.331Z,68.00
2018-05-09T04:44:15.889Z,67.90
2018-05-09T04:46:45.204Z,67.60
2018-05-09T04:49:14.504Z,67.40
2018-05-09T04:51:43.846Z,67.00
2018-05-09T04:54:13.278Z,67.00
2018-05-09T04:56:41.812Z,66.90
2018-05-09T04:59:10.370Z,66.60
2018-05-09T05:01:39.758Z,67.00
2018-05-09T05:04:09.123Z,67.10
2018-05-09T05:06:37.692Z,67.00
2018-05-09T05:09:09.652Z,66.90
2018-05-09T05:11:38.205Z,67.20
2018-05-09T05:14:06.776Z,67.50
2018-05-09T05:16:36.117Z,67.30
2018-05-09T05:19:04.691Z,67.20
2018-05-09T05:21:33.256Z,67.10
2018-05-09T05:24:01.816Z,66.80
2018-05-09T05:26:30.388Z,67.20
2018-05-09T05:28:58.977Z,66.80
2018-05-09T05:31:27.522Z,66.60
2018-05-09T05:33:56.066Z,65.90
2018-05-09T05:36:25.383Z,65.40
2018-05-09T05:38:53.952Z,65.40
2018-05-09T05:41:23.294Z,65.10
2018-05-09T05:43:51.843Z,65.00
2018-05-09T05:46:20.381Z,64.60
2018-05-09T05:48:48.941Z,64.70
2018-05-09T05:51:17.478Z,64.30
2018-05-09T05:53:46.000Z,64.40
2018-05-09T05:56:14.533Z,64.30
2018-05-09T05:58:43.071Z,63.70
2018-05-09T06:01:11.599Z,63.80
2018-05-09T06:03:40.146Z,64.20
2018-05-09T06:06:08.678Z,64.50
2018-05-09T06:08:37.982Z,64.30
2018-05-09T06:11:07.270Z,63.20
2018-05-09T06:13:35.851Z,63.20
2018-05-09T06:16:04.404Z,63.30
2018-05-09T06:18:32.938Z,62.60
2018-05-09T06:21:02.273Z,63.60
2018-05-09T06:23:30.818Z,63.50
2018-05-09T06:26:00.150Z,63.10
2018-05-09T06:28:28.697Z,63.10
2018-05-09T06:30:57.324Z,63.60
2018-05-09T06:33:25.810Z,63.50
2018-05-09T06:35:54.337Z,63.30
2018-05-09T06:38:22.882Z,62.90
2018-05-09T06:40:51.424Z,63.70
2018-05-09T06:43:20.766Z,63.80
2018-05-09T06:45:49.318Z,63.80
2018-05-09T06:48:17.870Z,64.00
2018-05-09T06:50:46.397Z,65.10
2018-05-09T06:53:14.938Z,63.80
2018-05-09T06:55:43.470Z,63.30
2018-05-09T06:58:12.023Z,63.10
2018-05-09T07:00:41.344Z,64.30
2018-05-09T07:03:09.892Z,64.10
2018-05-09T07:05:38.429Z,62.80
2018-05-09T07:08:06.966Z,63.40
2018-05-09T07:10:36.279Z,62.00
2018-05-09T07:13:05.583Z,62.00
2018-05-09T07:15:34.139Z,61.90
2018-05-09T07:18:02.683Z,61.30
2018-05-09T07:20:31.245Z,61.80
2018-05-09T07:22:59.824Z,61.10
2018-05-09T07:25:42.318Z,61.50
2018-05-09T07:28:16.315Z,61.40
2018-05-09T07:31:07.539Z,62.00
2018-05-09T07:33:37.048Z,62.00
2018-05-09T07:36:06.334Z,62.60
2018-05-09T07:38:34.850Z,62.60
2018-05-09T07:41:03.414Z,64.60
2018-05-09T07:43:32.747Z,59.30
2018-05-09T07:46:01.299Z,59.30
2018-05-09T07:48:30.621Z,59.10
2018-05-09T07:50:59.183Z,59.00
2018-05-09T07:53:27.716Z,60.10
2018-05-09T07:55:56.254Z,59.50
2018-05-09T07:58:25.590Z,59.70
2018-05-09T08:00:54.138Z,59.70
2018-05-09T08:03:23.476Z,58.70
2018-05-09T08:05:52.826Z,59.50
2018-05-09T08:08:21.348Z,59.40
2018-05-09T08:10:49.890Z,60.00
2018-05-09T08:13:19.200Z,60.00
2018-05-09T08:15:48.519Z,59.50
2018-05-09T08:18:17.058Z,59.40
2018-05-09T08:20:45.562Z,59.60
2018-05-09T08:23:14.107Z,60.90
2018-05-09T08:25:42.661Z,62.10
2018-05-09T08:28:11.497Z,60.30
2018-05-09T08:30:40.162Z,61.70
2018-05-09T08:33:08.695Z,62.90
2018-05-09T08:35:38.010Z,59.60
2018-05-09T08:38:06.577Z,59.60
2018-05-09T08:40:35.890Z,58.40
2018-05-09T08:43:04.455Z,58.60
2018-05-09T08:45:33.038Z,57.60
2018-05-09T08:48:02.350Z,59.80
2018-05-09T08:50:30.909Z,59.80
2018-05-09T08:52:59.434Z,58.60
2018-05-09T08:55:27.985Z,57.60
2018-05-09T08:57:56.562Z,57.50
2018-05-09T09:00:25.118Z,56.30
2018-05-09T09:02:53.681Z,59.40
2018-05-09T09:05:22.209Z,60.20
2018-05-09T09:07:50.792Z,57.00
2018-05-09T09:10:19.353Z,56.60
2018-05-09T09:12:47.877Z,56.80
2018-05-09T09:15:17.267Z,57.20
2018-05-09T09:17:45.758Z,57.10
2018-05-09T09:20:15.068Z,57.70
2018-05-09T09:22:44.386Z,57.10
2018-05-09T09:25:12.937Z,57.10
2018-05-09T09:27:41.490Z,55.60
2018-05-09T09:30:10.035Z,54.20
2018-05-09T09:32:38.581Z,53.30
2018-05-09T09:35:07.142Z,54.20
2018-05-09T09:37:35.692Z,53.60
2018-05-09T09:40:04.298Z,53.90
2018-05-09T09:42:32.851Z,53.00
2018-05-09T09:45:01.392Z,54.10
2018-05-09T09:47:29.941Z,52.40
2018-05-09T09:49:58.499Z,52.00
2018-05-09T09:52:27.048Z,51.90
2018-05-09T09:54:55.590Z,51.60
2018-05-09T09:57:24.147Z,52.10
2018-05-09T09:59:52.694Z,54.00
2018-05-09T10:02:21.385Z,54.00
2018-05-09T10:04:49.931Z,49.50
2018-05-09T10:07:18.511Z,51.20
2018-05-09T10:09:47.070Z,52.80
2018-05-09T10:12:15.609Z,52.00
2018-05-09T10:14:44.202Z,51.30
2018-05-09T10:17:12.798Z,51.90
2018-05-09T10:19:42.115Z,53.90
2018-05-09T10:22:10.657Z,53.90
2018-05-09T10:24:39.201Z,51.10
2018-05-09T10:27:07.807Z,51.50
2018-05-09T10:29:36.363Z,50.70
2018-05-09T10:32:04.920Z,51.00
2018-05-09T10:34:34.243Z,51.50
2018-05-09T10:37:02.783Z,51.50
2018-05-09T10:39:31.428Z,51.70
2018-05-09T10:41:59.978Z,51.80
2018-05-09T10:44:28.537Z,50.60
2018-05-09T10:46:57.083Z,50.20
2018-05-09T10:49:25.629Z,49.80
2018-05-09T10:51:54.191Z,50.00
2018-05-09T10:54:22.731Z,52.80
2018-05-09T10:56:51.264Z,50.00
2018-05-09T10:59:20.594Z,49.50
2018-05-09T11:01:49.135Z,49.50
2018-05-09T11:04:17.671Z,47.80
2018-05-09T11:06:46.208Z,48.00
2018-05-09T11:09:15.527Z,47.30
2018-05-09T11:11:44.807Z,46.20
2018-05-09T11:14:13.362Z,46.20
2018-05-09T11:16:48.125Z,47.00
2018-05-09T11:19:22.291Z,46.40
2018-05-09T11:21:56.278Z,51.10
2018-05-09T11:24:30.251Z,46.60
2018-05-09T11:27:04.333Z,46.30
2018-05-09T11:29:38.490Z,46.40
2018-05-09T11:32:12.528Z,46.00
2018-05-09T11:34:46.625Z,48.80
2018-05-09T11:37:20.794Z,45.80
2018-05-09T11:39:54.870Z,46.20
2018-05-09T11:42:29.664Z,46.90
2018-05-09T11:45:04.524Z,47.10
2018-05-09T11:47:38.632Z,47.20
2018-05-09T11:50:12.731Z,47.20
2018-05-09T11:52:46.769Z,48.20
2018-05-09T11:55:20.851Z,48.00
2018-05-09T11:57:55.513Z,47.80
2018-05-09T12:00:29.622Z,47.70
2018-05-09T12:03:03.715Z,47.50
2018-05-09T12:05:38.548Z,48.60
2018-05-09T12:08:12.659Z,48.60
2018-05-09T12:10:46.726Z,51.40
2018-05-09T12:13:20.812Z,51.20
2018-05-09T12:15:54.828Z,48.60
2018-05-09T12:18:28.850Z,48.40
2018-05-09T12:21:03.642Z,48.90
2018-05-09T12:23:37.738Z,48.80
2018-05-09T12:26:12.718Z,48.60
2018-05-09T12:28:46.706Z,48.50
2018-05-09T12:31:20.751Z,48.90
2018-05-09T12:33:55.503Z,48.00
2018-05-09T12:36:30.411Z,50.10
2018-05-09T12:39:04.487Z,50.00
2018-05-09T12:41:38.422Z,48.60
2018-05-09T12:44:12.488Z,48.50
2018-05-09T12:46:46.532Z,49.90
2018-05-09T12:49:20.515Z,52.00
2018-05-09T12:51:54.622Z,45.20
2018-05-09T12:54:28.683Z,48.60
2018-05-09T12:57:02.563Z,48.40
2018-05-09T12:59:36.666Z,44.10
2018-05-09T13:02:11.562Z,47.30
2018-05-09T13:04:45.710Z,47.30
2018-05-09T13:07:20.629Z,42.00
2018-05-09T13:09:54.618Z,42.00
2018-05-09T13:12:29.414Z,45.60
2018-05-09T13:15:03.327Z,45.90
2018-05-09T13:17:37.419Z,45.70
2018-05-09T13:20:11.579Z,45.70
2018-05-09T13:22:45.663Z,43.60
2018-05-09T13:25:19.645Z,41.70
2018-05-09T13:27:53.674Z,44.60
2018-05-09T13:30:27.771Z,44.70
2018-05-09T13:33:01.849Z,46.60
2018-05-09T13:35:37.759Z,44.70
2018-05-09T13:38:11.695Z,44.60
2018-05-09T13:40:46.370Z,44.70
2018-05-09T13:43:20.289Z,44.60
2018-05-09T13:45:54.418Z,43.20
2018-05-09T13:48:28.399Z,44.80
2018-05-09T13:51:02.438Z,43.90
2018-05-09T13:53:37.259Z,46.00
2018-05-09T13:56:11.971Z,42.20
2018-05-09T13:58:46.815Z,40.30
2018-05-09T14:01:20.950Z,40.30
2018-05-09T14:03:56.054Z,40.00
2018-05-09T14:06:30.196Z,41.10
2018-05-09T14:09:04.182Z,40.70
2018-05-09T14:11:38.294Z,41.00
2018-05-09T14:14:12.451Z,41.30
2018-05-09T14:16:48.114Z,40.90
2018-05-09T14:19:24.120Z,41.40
2018-05-09T14:22:03.165Z,40.70
2018-05-09T14:24:39.803Z,42.60
2018-05-09T14:27:14.606Z,43.10
2018-05-09T14:29:50.663Z,40.40
2018-05-09T14:32:25.664Z,40.50
2018-05-09T14:35:05.289Z,41.00
2018-05-09T14:37:39.829Z,41.50
2018-05-09T14:40:14.191Z,41.40
2018-05-09T14:42:49.638Z,40.20
2018-05-09T14:45:23.779Z,40.20
2018-05-09T14:47:58.258Z,42.20
2018-05-09T14:50:36.193Z,40.60
2018-05-09T14:53:10.330Z,39.30
2018-05-09T14:55:44.869Z,36.40
2018-05-09T14:58:19.260Z,34.90
2018-05-09T15:00:54.227Z,35.70
2018-05-09T15:03:28.466Z,35.60
2018-05-09T15:06:02.550Z,38.20
2018-05-09T15:08:36.678Z,34.20
2018-05-09T15:11:11.080Z,35.30
2018-05-09T15:13:45.245Z,36.50
2018-05-09T15:16:19.392Z,34.70
2018-05-09T15:18:53.761Z,36.40
2018-05-09T15:21:27.768Z,36.90
2018-05-09T15:24:01.869Z,36.10
2018-05-09T15:26:35.884Z,36.70
2018-05-09T15:29:10.129Z,34.30
2018-05-09T15:31:45.014Z,35.80
2018-05-09T15:34:19.168Z,35.90
2018-05-09T15:36:53.398Z,36.40
2018-05-09T15:39:27.458Z,34.40
2018-05-09T15:42:01.593Z,34.90
2018-05-09T15:44:35.674Z,33.60
2018-05-09T15:47:10.518Z,33.90
2018-05-09T15:49:47.638Z,34.00
2018-05-09T15:52:21.565Z,35.60
2018-05-09T15:54:55.500Z,33.70
2018-05-09T15:57:30.203Z,34.20
2018-05-09T16:00:04.994Z,35.40
2018-05-09T16:02:39.098Z,35.30
2018-05-09T16:05:13.205Z,34.60
2018-05-09T16:07:47.283Z,35.20
2018-05-09T16:10:21.339Z,33.90
2018-05-09T16:12:55.489Z,35.50
2018-05-09T16:15:29.566Z,36.10
2018-05-09T16:18:03.678Z,33.30
2018-05-09T16:20:37.822Z,34.40
2018-05-09T16:23:11.810Z,34.80
2018-05-09T16:25:45.887Z,33.10
2018-05-09T16:28:20.009Z,34.80
2018-05-09T16:30:54.050Z,34.80
2018-05-09T16:33:28.014Z,35.70
2018-05-09T16:36:03.356Z,36.00
2018-05-09T16:38:37.192Z,35.70
2018-05-09T16:41:11.167Z,35.40
2018-05-09T16:43:45.168Z,35.50
2018-05-09T16:46:19.227Z,35.60
2018-05-09T16:48:53.350Z,33.70
2018-05-09T16:51:28.179Z,34.40
2018-05-09T16:54:02.237Z,34.50
2018-05-09T16:56:36.338Z,34.20
2018-05-09T16:59:11.280Z,36.00
2018-05-09T17:01:45.365Z,36.00
2018-05-09T17:04:19.365Z,34.60
2018-05-09T17:06:53.413Z,33.30
2018-05-09T17:09:27.487Z,33.40
2018-05-09T17:12:01.537Z,34.10
2018-05-09T17:14:35.632Z,34.40
2018-05-09T17:17:09.671Z,36.00
2018-05-09T17:19:45.089Z,37.10
2018-05-09T17:22:33.982Z,38.50
2018-05-09T17:25:08.038Z,36.00
2018-05-09T17:27:42.111Z,34.60
2018-05-09T17:30:16.245Z,37.90
2018-05-09T17:32:50.563Z,38.40
2018-05-09T17:35:24.601Z,37.90
2018-05-09T17:37:58.669Z,36.30
2018-05-09T17:40:32.801Z,37.60
2018-05-09T17:43:06.777Z,37.90
2018-05-09T17:45:40.928Z,36.10
2018-05-09T17:48:15.170Z,38.90
2018-05-09T17:50:49.436Z,38.00
2018-05-09T17:53:23.553Z,38.10
2018-05-09T17:55:57.706Z,38.10
2018-05-09T17:58:32.935Z,37.00
2018-05-09T18:01:06.838Z,37.00
2018-05-09T18:03:41.714Z,52.00
2018-05-09T18:06:15.704Z,52.00
2018-05-09T18:08:49.771Z,51.60
2018-05-09T18:11:23.891Z,60.50
2018-05-09T18:13:57.983Z,53.30
2018-05-09T18:16:32.018Z,58.00
2018-05-09T18:19:06.129Z,58.70
2018-05-09T18:21:40.251Z,55.40
2018-05-09T18:24:14.362Z,54.90
2018-05-09T18:26:49.250Z,52.90
2018-05-09T18:29:23.344Z,52.80
2018-05-09T18:31:57.413Z,59.40
2018-05-09T18:34:32.258Z,45.10
2018-05-09T18:37:07.110Z,47.90
2018-05-09T18:39:41.269Z,47.90
2018-05-09T18:42:15.302Z,44.70
2018-05-09T18:44:49.337Z,49.00
2018-05-09T18:47:23.446Z,46.10
2018-05-09T18:49:57.545Z,48.10
2018-05-09T18:52:32.503Z,48.80
2018-05-09T18:55:07.258Z,48.40
2018-05-09T18:57:41.534Z,48.50
2018-05-09T19:00:16.500Z,46.90
2018-05-09T19:02:50.611Z,46.70
2018-05-09T19:05:24.615Z,48.20
2018-05-09T19:07:59.527Z,47.90
2018-05-09T19:10:33.666Z,47.80
2018-05-09T19:13:07.754Z,48.30
2018-05-09T19:15:41.841Z,48.60
2018-05-09T19:18:15.999Z,47.20
2018-05-09T19:20:50.186Z,48.80
2018-05-09T19:23:24.287Z,49.30
2018-05-09T19:25:58.227Z,48.90
2018-05-09T19:28:32.349Z,49.20
2018-05-09T19:31:07.099Z,48.80
2018-05-09T19:33:41.316Z,48.80
2018-05-09T19:36:15.426Z,50.00
2018-05-09T19:38:49.485Z,50.30
2018-05-09T19:41:23.570Z,48.80
2018-05-09T19:43:57.519Z,51.30
2018-05-09T19:46:31.510Z,51.20
2018-05-09T19:49:05.485Z,49.40
2018-05-09T19:51:39.561Z,50.90
2018-05-09T19:54:13.676Z,50.20
2018-05-09T19:56:47.875Z,50.70
2018-05-09T19:59:22.003Z,50.30
2018-05-09T20:01:56.047Z,49.80
2018-05-09T20:04:31.015Z,52.20
2018-05-09T20:07:05.867Z,52.00
2018-05-09T20:09:39.801Z,51.90
2018-05-09T20:12:13.912Z,52.10
2018-05-09T20:14:47.970Z,54.10
2018-05-09T20:17:22.817Z,53.40
2018-05-09T20:19:56.953Z,53.40
2018-05-09T20:22:31.104Z,53.60
2018-05-09T20:25:05.239Z,53.50
2018-05-09T20:27:40.013Z,51.80
2018-05-09T20:30:14.048Z,52.00
2018-05-09T20:32:48.133Z,53.20
2018-05-09T20:35:22.187Z,53.70
2018-05-09T20:37:57.330Z,53.20
2018-05-09T20:40:31.325Z,55.40
2018-05-09T20:43:06.240Z,53.60
2018-05-09T20:45:40.964Z,54.20
2018-05-09T20:48:15.089Z,54.10
2018-05-09T20:50:49.470Z,57.70
2018-05-09T20:53:23.494Z,56.40
2018-05-09T20:55:57.646Z,56.40
2018-05-09T20:58:32.498Z,55.20
2018-05-09T21:01:25.697Z,54.90
2018-05-09T21:03:59.750Z,54.80
2018-05-09T21:06:33.779Z,53.50
2018-05-09T21:09:07.880Z,53.40
2018-05-09T21:11:53.959Z,53.00
2018-05-09T21:14:28.137Z,55.10
2018-05-09T21:17:03.238Z,54.80
2018-05-09T21:19:37.523Z,50.80
2018-05-09T21:22:11.392Z,52.70
2018-05-09T21:24:45.407Z,46.20
2018-05-09T21:27:19.447Z,46.90
2018-05-09T21:29:53.515Z,47.20
2018-05-09T21:32:27.595Z,46.70
2018-05-09T21:35:01.606Z,47.60
2018-05-09T21:37:36.436Z,48.30
2018-05-09T21:40:10.543Z,48.30
2018-05-09T21:42:44.638Z,48.70
2018-05-09T21:45:18.573Z,49.20
2018-05-09T21:47:52.642Z,49.60
2018-05-09T21:50:26.919Z,49.60
2018-05-09T21:53:00.986Z,49.80
2018-05-09T21:55:35.007Z,49.70
2018-05-09T21:58:09.094Z,49.70
2018-05-09T22:00:43.954Z,50.20
2018-05-09T22:03:17.991Z,50.10
2018-05-09T22:05:52.054Z,48.60
2018-05-09T22:08:26.054Z,50.20
2018-05-09T22:11:00.178Z,51.30
2018-05-09T22:13:34.231Z,48.80
2018-05-09T22:16:08.235Z,49.00
2018-05-09T22:18:42.299Z,49.00
2018-05-09T22:21:16.470Z,47.70
2018-05-09T22:23:50.442Z,49.20
2018-05-09T22:26:24.544Z,46.40
2018-05-09T22:28:58.418Z,47.50
2018-05-09T22:31:32.512Z,48.40
2018-05-09T22:34:06.585Z,48.30
2018-05-09T22:36:40.709Z,47.60
2018-05-09T22:39:14.846Z,46.40
2018-05-09T22:41:49.005Z,46.90
2018-05-09T22:44:23.099Z,47.20
2018-05-09T22:46:57.190Z,47.60
2018-05-09T22:49:32.000Z,47.40
2018-05-09T22:52:06.075Z,47.30
2018-05-09T22:54:34.619Z,46.60
2018-05-09T22:57:03.184Z,47.90
2018-05-09T22:59:32.474Z,48.80
2018-05-09T23:02:01.758Z,48.30
2018-05-09T23:04:30.303Z,48.40
2018-05-09T23:06:59.599Z,57.20
2018-05-09T23:09:28.165Z,56.50
2018-05-09T23:11:56.718Z,60.60
2018-05-09T23:14:26.041Z,54.50
2018-05-09T23:16:54.590Z,54.40
2018-05-09T23:19:23.136Z,54.50
2018-05-09T23:21:52.469Z,52.20
2018-05-09T23:24:21.021Z,52.50
2018-05-09T23:26:49.569Z,55.90
2018-05-09T23:29:18.145Z,55.80
2018-05-09T23:31:47.458Z,53.00
2018-05-09T23:34:15.978Z,53.00
2018-05-09T23:36:44.536Z,56.10
2018-05-09T23:39:13.090Z,57.90
2018-05-09T23:41:42.399Z,61.90
2018-05-09T23:44:11.713Z,61.90
2018-05-09T23:46:40.275Z,62.00
2018-05-09T23:49:13.630Z,64.10
2018-05-09T23:51:42.182Z,64.00
2018-05-09T23:54:10.723Z,63.50
2018-05-09T23:56:39.273Z,63.80
2018-05-09T23:59:07.835Z,63.70
